createdAt,value
2017-10-26T00:01:14.230Z,0.00
2017-10-26T00:01:53.212Z,0.00
2017-10-26T00:02:53.217Z,0.00
2017-10-26T00:04:14.213Z,0.00
2017-10-26T00:04:53.201Z,0.00
2017-10-26T00:06:14.203Z,0.00
2017-10-26T00:06:53.192Z,0.00
2017-10-26T00:07:53.185Z,0.00
2017-10-26T00:09:14.189Z,0.00
2017-10-26T00:09:53.177Z,0.00
2017-10-26T00:11:14.181Z,0.00
2017-10-26T00:11:53.164Z,0.00
2017-10-26T00:12:53.164Z,0.00
2017-10-26T00:14:14.175Z,0.00
2017-10-26T00:14:53.152Z,0.00
2017-10-26T00:16:14.157Z,0.00
2017-10-26T00:16:53.144Z,0.00
2017-10-26T00:17:53.166Z,0.00
2017-10-26T00:19:14.142Z,0.00
2017-10-26T00:19:53.126Z,0.00
2017-10-26T00:21:14.130Z,0.00
2017-10-26T00:21:53.123Z,0.00
2017-10-26T00:22:53.160Z,0.00
2017-10-26T00:24:14.122Z,0.00
2017-10-26T00:24:53.109Z,0.00
2017-10-26T00:26:14.136Z,0.00
2017-10-26T00:26:53.099Z,0.00
2017-10-26T00:27:53.097Z,0.00
2017-10-26T00:29:14.091Z,0.00
2017-10-26T00:29:53.081Z,0.00
2017-10-26T00:31:14.089Z,0.00
2017-10-26T00:31:53.077Z,0.00
2017-10-26T00:32:53.065Z,0.00
2017-10-26T00:34:14.070Z,0.00
2017-10-26T00:34:53.061Z,0.00
2017-10-26T00:36:14.063Z,0.00
2017-10-26T00:36:53.059Z,0.00
2017-10-26T00:37:53.048Z,0.00
2017-10-26T00:39:14.046Z,0.00
2017-10-26T00:39:53.039Z,0.00
2017-10-26T00:41:14.036Z,0.00
2017-10-26T00:41:53.052Z,0.00
2017-10-26T00:42:53.041Z,0.00
2017-10-26T00:44:14.027Z,0.00
2017-10-26T00:44:53.032Z,0.00
2017-10-26T00:46:14.016Z,0.00
2017-10-26T00:46:53.004Z,0.00
2017-10-26T00:47:53.000Z,0.00
2017-10-26T00:49:13.999Z,0.00
2017-10-26T00:49:52.992Z,0.00
2017-10-26T00:51:13.989Z,0.00
2017-10-26T00:51:52.977Z,0.00
2017-10-26T00:52:52.974Z,0.00
2017-10-26T00:54:13.975Z,0.00
2017-10-26T00:54:52.966Z,0.00
2017-10-26T00:56:13.967Z,0.00
2017-10-26T00:56:52.969Z,0.00
2017-10-26T00:57:52.977Z,0.00
2017-10-26T00:59:13.951Z,0.00
2017-10-26T00:59:52.949Z,0.00
2017-10-26T01:01:13.943Z,0.00
2017-10-26T01:01:52.945Z,0.00
2017-10-26T01:02:52.941Z,0.00
2017-10-26T01:04:13.992Z,0.00
2017-10-26T01:04:52.950Z,0.00
2017-10-26T01:06:13.917Z,0.00
2017-10-26T01:06:52.934Z,0.00
2017-10-26T01:07:52.972Z,0.00
2017-10-26T01:09:13.904Z,0.00
2017-10-26T01:09:52.936Z,0.00
2017-10-26T01:11:13.898Z,0.00
2017-10-26T01:11:52.912Z,0.00
2017-10-26T01:12:52.909Z,0.00
2017-10-26T01:14:13.881Z,0.00
2017-10-26T01:14:52.893Z,0.00
2017-10-26T01:16:13.881Z,0.00
2017-10-26T01:16:52.912Z,0.00
2017-10-26T01:17:52.874Z,0.00
2017-10-26T01:19:13.854Z,0.00
2017-10-26T01:19:52.896Z,0.00
2017-10-26T01:21:13.848Z,0.00
2017-10-26T01:21:52.837Z,0.00
2017-10-26T01:22:52.834Z,0.00
2017-10-26T01:24:13.832Z,0.00
2017-10-26T01:24:52.823Z,0.00
2017-10-26T01:26:13.822Z,0.00
2017-10-26T01:26:52.818Z,0.00
2017-10-26T01:27:52.885Z,0.00
2017-10-26T01:29:13.812Z,0.00
2017-10-26T01:29:52.827Z,0.00
2017-10-26T01:31:13.800Z,0.00
2017-10-26T01:31:53.058Z,0.00
2017-10-26T01:32:52.810Z,0.00
2017-10-26T01:34:13.787Z,0.00
2017-10-26T01:34:52.821Z,0.00
2017-10-26T01:36:14.007Z,0.00
2017-10-26T01:36:52.786Z,0.00
2017-10-26T01:37:52.763Z,0.00
2017-10-26T01:39:13.758Z,0.00
2017-10-26T01:39:52.751Z,0.00
2017-10-26T01:41:13.754Z,0.00
2017-10-26T01:41:52.763Z,0.00
2017-10-26T01:42:52.773Z,0.00
2017-10-26T01:44:13.733Z,0.00
2017-10-26T01:44:54.131Z,0.00
2017-10-26T01:46:13.721Z,0.00
2017-10-26T01:46:52.743Z,0.00
2017-10-26T01:47:52.742Z,0.00
2017-10-26T01:49:13.731Z,0.00
2017-10-26T01:49:52.697Z,0.00
2017-10-26T01:51:13.696Z,0.00
2017-10-26T01:51:52.692Z,0.00
2017-10-26T01:52:52.682Z,0.00
2017-10-26T01:54:13.680Z,0.00
2017-10-26T01:54:52.672Z,0.00
2017-10-26T01:56:13.675Z,0.00
2017-10-26T01:56:52.691Z,0.00
2017-10-26T01:57:52.694Z,0.00
2017-10-26T01:59:13.656Z,0.00
2017-10-26T01:59:52.663Z,0.00
2017-10-26T02:01:13.649Z,0.00
2017-10-26T02:01:52.663Z,0.00
2017-10-26T02:02:52.678Z,0.00
2017-10-26T02:04:13.653Z,0.00
2017-10-26T02:04:52.641Z,0.00
2017-10-26T02:06:13.628Z,0.00
2017-10-26T02:06:52.630Z,0.00
2017-10-26T02:07:52.634Z,0.00
2017-10-26T02:09:13.608Z,0.00
2017-10-26T02:09:52.617Z,0.00
2017-10-26T02:11:13.594Z,0.00
2017-10-26T02:11:52.616Z,0.00
2017-10-26T02:12:52.600Z,0.00
2017-10-26T02:14:13.580Z,0.00
2017-10-26T02:14:52.570Z,0.00
2017-10-26T02:16:13.569Z,0.00
2017-10-26T02:16:52.557Z,0.00
2017-10-26T02:17:52.557Z,0.00
2017-10-26T02:19:13.556Z,0.00
2017-10-26T02:19:52.550Z,0.00
2017-10-26T02:21:13.575Z,0.00
2017-10-26T02:21:52.534Z,0.00
2017-10-26T02:22:52.529Z,0.00
2017-10-26T02:24:13.529Z,0.00
2017-10-26T02:24:52.516Z,0.00
2017-10-26T02:26:13.524Z,0.00
2017-10-26T02:26:52.528Z,0.00
2017-10-26T02:27:52.510Z,0.00
2017-10-26T02:29:13.505Z,0.00
2017-10-26T02:29:52.491Z,0.00
2017-10-26T02:31:13.499Z,0.00
2017-10-26T02:31:52.483Z,0.00
2017-10-26T02:32:52.472Z,0.00
2017-10-26T02:34:13.476Z,0.00
2017-10-26T02:34:52.464Z,0.00
2017-10-26T02:36:13.468Z,0.00
2017-10-26T02:36:52.456Z,0.00
2017-10-26T02:37:52.454Z,0.00
2017-10-26T02:39:13.455Z,0.00
2017-10-26T02:39:52.442Z,0.00
2017-10-26T02:41:13.440Z,0.00
2017-10-26T02:41:52.431Z,0.00
2017-10-26T02:42:53.223Z,0.00
2017-10-26T02:44:13.432Z,0.00
2017-10-26T02:44:52.413Z,0.00
2017-10-26T02:46:13.419Z,0.00
2017-10-26T02:46:52.402Z,0.00
2017-10-26T02:47:52.397Z,0.00
2017-10-26T02:49:13.397Z,0.00
2017-10-26T02:49:52.385Z,0.00
2017-10-26T02:51:13.388Z,0.00
2017-10-26T02:51:52.377Z,0.00
2017-10-26T02:52:52.369Z,0.00
2017-10-26T02:54:13.370Z,0.00
2017-10-26T02:54:52.361Z,0.00
2017-10-26T02:56:13.362Z,0.00
2017-10-26T02:56:52.349Z,0.00
2017-10-26T02:57:52.343Z,0.00
2017-10-26T02:59:13.350Z,0.00
2017-10-26T02:59:52.335Z,0.00
2017-10-26T03:01:13.333Z,0.00
2017-10-26T03:01:52.323Z,0.00
2017-10-26T03:02:52.321Z,0.00
2017-10-26T03:04:13.319Z,0.00
2017-10-26T03:04:52.318Z,0.00
2017-10-26T03:06:13.315Z,0.00
2017-10-26T03:06:52.294Z,0.00
2017-10-26T03:07:52.292Z,0.00
2017-10-26T03:09:13.290Z,0.00
2017-10-26T03:09:52.276Z,0.00
2017-10-26T03:11:13.281Z,0.00
2017-10-26T03:11:52.269Z,0.00
2017-10-26T03:12:52.281Z,0.00
2017-10-26T03:14:13.266Z,0.00
2017-10-26T03:14:52.262Z,0.00
2017-10-26T03:16:13.252Z,0.00
2017-10-26T03:16:52.242Z,0.00
2017-10-26T03:17:52.232Z,0.00
2017-10-26T03:19:13.235Z,0.00
2017-10-26T03:19:52.226Z,0.00
2017-10-26T03:21:13.228Z,0.00
2017-10-26T03:21:52.219Z,0.00
2017-10-26T03:22:52.209Z,0.00
2017-10-26T03:24:13.210Z,0.00
2017-10-26T03:24:52.202Z,0.00
2017-10-26T03:26:13.202Z,0.00
2017-10-26T03:26:52.187Z,0.00
2017-10-26T03:27:52.188Z,0.00
2017-10-26T03:29:13.181Z,0.00
2017-10-26T03:29:52.171Z,0.00
2017-10-26T03:31:13.170Z,0.00
2017-10-26T03:31:52.163Z,0.00
2017-10-26T03:32:52.160Z,0.00
2017-10-26T03:34:13.155Z,0.00
2017-10-26T03:34:52.139Z,0.00
2017-10-26T03:36:13.145Z,0.00
2017-10-26T03:36:52.130Z,0.00
2017-10-26T03:37:52.124Z,0.00
2017-10-26T03:39:13.127Z,0.00
2017-10-26T03:39:52.113Z,0.00
2017-10-26T03:41:13.118Z,0.00
2017-10-26T03:41:52.104Z,0.00
2017-10-26T03:42:52.101Z,0.00
2017-10-26T03:44:13.681Z,0.00
2017-10-26T03:44:52.088Z,0.00
2017-10-26T03:46:13.089Z,0.00
2017-10-26T03:46:52.076Z,0.00
2017-10-26T03:47:52.075Z,0.00
2017-10-26T03:49:13.073Z,0.00
2017-10-26T03:49:52.059Z,0.00
2017-10-26T03:51:13.062Z,0.00
2017-10-26T03:51:52.049Z,0.00
2017-10-26T03:52:52.045Z,0.00
2017-10-26T03:54:13.057Z,0.00
2017-10-26T03:54:52.035Z,0.00
2017-10-26T03:56:13.038Z,0.00
2017-10-26T03:56:52.021Z,0.00
2017-10-26T03:57:52.017Z,0.00
2017-10-26T03:59:13.016Z,0.00
2017-10-26T03:59:52.003Z,0.00
2017-10-26T04:01:13.009Z,0.00
2017-10-26T04:01:51.994Z,0.00
2017-10-26T04:02:51.990Z,0.00
2017-10-26T04:04:12.989Z,0.00
2017-10-26T04:04:51.982Z,0.00
2017-10-26T04:06:12.980Z,0.00
2017-10-26T04:06:51.966Z,0.00
2017-10-26T04:07:51.967Z,0.00
2017-10-26T04:09:12.968Z,0.00
2017-10-26T04:09:51.952Z,0.00
2017-10-26T04:11:12.954Z,0.00
2017-10-26T04:11:51.938Z,0.00
2017-10-26T04:12:51.930Z,0.00
2017-10-26T04:14:12.928Z,0.00
2017-10-26T04:14:51.919Z,0.00
2017-10-26T04:16:12.927Z,0.00
2017-10-26T04:16:51.911Z,0.00
2017-10-26T04:17:51.904Z,0.00
2017-10-26T04:19:12.908Z,0.00
2017-10-26T04:19:51.895Z,0.00
2017-10-26T04:21:12.894Z,0.00
2017-10-26T04:21:51.881Z,0.00
2017-10-26T04:22:51.876Z,0.00
2017-10-26T04:24:12.882Z,0.00
2017-10-26T04:24:51.870Z,0.00
2017-10-26T04:26:12.865Z,0.00
2017-10-26T04:26:51.851Z,0.00
2017-10-26T04:27:51.848Z,0.00
2017-10-26T04:29:12.852Z,0.00
2017-10-26T04:29:51.837Z,0.00
2017-10-26T04:31:12.845Z,0.00
2017-10-26T04:31:51.825Z,0.00
2017-10-26T04:32:51.819Z,0.00
2017-10-26T04:34:12.818Z,0.00
2017-10-26T04:34:51.806Z,0.00
2017-10-26T04:36:12.811Z,0.00
2017-10-26T04:36:51.799Z,0.00
2017-10-26T04:37:51.795Z,0.00
2017-10-26T04:39:12.794Z,0.00
2017-10-26T04:39:51.781Z,0.00
2017-10-26T04:41:13.722Z,0.00
2017-10-26T04:41:51.772Z,0.00
2017-10-26T04:42:51.764Z,0.00
2017-10-26T04:44:12.766Z,0.00
2017-10-26T04:44:51.750Z,0.00
2017-10-26T04:46:12.757Z,0.00
2017-10-26T04:46:51.744Z,0.00
2017-10-26T04:47:51.734Z,0.00
2017-10-26T04:49:12.737Z,0.00
2017-10-26T04:49:51.721Z,0.00
2017-10-26T04:51:12.723Z,0.00
2017-10-26T04:51:51.712Z,0.00
2017-10-26T04:52:51.708Z,0.00
2017-10-26T04:54:12.706Z,0.00
2017-10-26T04:54:51.691Z,0.00
2017-10-26T04:56:12.696Z,0.00
2017-10-26T04:56:51.688Z,0.00
2017-10-26T04:57:51.677Z,0.00
2017-10-26T04:59:12.674Z,0.00
2017-10-26T04:59:51.665Z,0.00
2017-10-26T05:01:12.721Z,0.00
2017-10-26T05:01:51.656Z,0.00
2017-10-26T05:02:51.649Z,0.00
2017-10-26T05:04:12.651Z,0.00
2017-10-26T05:04:51.637Z,0.00
2017-10-26T05:06:12.639Z,0.00
2017-10-26T05:06:51.624Z,0.00
2017-10-26T05:07:51.625Z,0.00
2017-10-26T05:09:12.625Z,0.00
2017-10-26T05:09:51.609Z,0.00
2017-10-26T05:11:12.611Z,0.00
2017-10-26T05:11:51.601Z,0.00
2017-10-26T05:12:51.592Z,0.00
2017-10-26T05:14:12.613Z,0.00
2017-10-26T05:14:51.580Z,0.00
2017-10-26T05:16:12.580Z,0.00
2017-10-26T05:16:51.570Z,0.00
2017-10-26T05:17:51.568Z,0.00
2017-10-26T05:19:12.563Z,0.00
2017-10-26T05:19:51.552Z,0.00
2017-10-26T05:21:12.554Z,0.00
2017-10-26T05:21:51.537Z,0.00
2017-10-26T05:22:51.534Z,0.00
2017-10-26T05:24:12.540Z,0.00
2017-10-26T05:24:51.522Z,0.00
2017-10-26T05:26:12.524Z,0.00
2017-10-26T05:26:51.509Z,0.00
2017-10-26T05:27:51.504Z,0.00
2017-10-26T05:29:12.505Z,0.00
2017-10-26T05:29:51.496Z,0.00
2017-10-26T05:31:12.493Z,0.00
2017-10-26T05:31:51.481Z,0.00
2017-10-26T05:32:51.473Z,0.00
2017-10-26T05:34:12.475Z,0.00
2017-10-26T05:34:51.462Z,0.00
2017-10-26T05:36:12.465Z,0.00
2017-10-26T05:36:51.451Z,0.00
2017-10-26T05:37:51.469Z,0.00
2017-10-26T05:39:12.452Z,4.00
2017-10-26T05:39:51.431Z,4.00
2017-10-26T05:41:12.441Z,4.00
2017-10-26T05:41:51.428Z,0.00
2017-10-26T05:42:51.417Z,4.00
2017-10-26T05:44:12.419Z,4.00
2017-10-26T05:44:51.405Z,4.00
2017-10-26T05:46:12.406Z,4.00
2017-10-26T05:46:51.393Z,8.00
2017-10-26T05:47:51.389Z,8.00
2017-10-26T05:49:12.387Z,8.00
2017-10-26T05:49:51.376Z,8.00
2017-10-26T05:51:12.375Z,12.00
2017-10-26T05:51:51.363Z,16.00
2017-10-26T05:52:51.359Z,16.00
2017-10-26T05:54:12.359Z,20.00
2017-10-26T05:54:51.345Z,28.00
2017-10-26T05:56:12.349Z,32.00
2017-10-26T05:56:51.333Z,32.00
2017-10-26T05:57:51.328Z,40.00
2017-10-26T05:59:12.334Z,44.00
2017-10-26T05:59:51.319Z,48.00
2017-10-26T06:01:12.318Z,56.00
2017-10-26T06:01:51.304Z,56.00
2017-10-26T06:02:51.302Z,64.00
2017-10-26T06:04:12.301Z,68.00
2017-10-26T06:04:51.290Z,76.00
2017-10-26T06:06:12.290Z,84.00
2017-10-26T06:06:51.280Z,92.00
2017-10-26T06:07:51.269Z,100.00
2017-10-26T06:09:12.273Z,112.00
2017-10-26T06:09:51.258Z,124.00
2017-10-26T06:11:12.257Z,132.00
2017-10-26T06:11:51.245Z,148.00
2017-10-26T06:12:51.241Z,160.00
2017-10-26T06:14:12.243Z,176.00
2017-10-26T06:14:51.234Z,196.00
2017-10-26T06:16:12.230Z,216.00
2017-10-26T06:16:51.216Z,240.00
2017-10-26T06:17:51.208Z,264.00
2017-10-26T06:19:12.214Z,288.00
2017-10-26T06:19:51.201Z,308.00
2017-10-26T06:21:12.207Z,332.00
2017-10-26T06:21:51.185Z,352.00
2017-10-26T06:22:51.182Z,380.00
2017-10-26T06:24:12.187Z,404.00
2017-10-26T06:24:51.169Z,428.00
2017-10-26T06:26:12.170Z,456.00
2017-10-26T06:26:51.160Z,480.00
2017-10-26T06:27:51.150Z,516.00
2017-10-26T06:29:12.153Z,548.00
2017-10-26T06:29:51.142Z,584.00
2017-10-26T06:31:12.143Z,608.00
2017-10-26T06:31:51.137Z,632.00
2017-10-26T06:32:51.125Z,660.00
2017-10-26T06:34:12.124Z,692.00
2017-10-26T06:34:51.108Z,728.00
2017-10-26T06:36:12.125Z,752.00
2017-10-26T06:36:51.100Z,772.00
2017-10-26T06:37:51.092Z,792.00
2017-10-26T06:39:12.094Z,808.00
2017-10-26T06:39:51.084Z,820.00
2017-10-26T06:41:12.082Z,840.00
2017-10-26T06:41:51.072Z,856.00
2017-10-26T06:42:51.068Z,884.00
2017-10-26T06:44:12.070Z,924.00
2017-10-26T06:44:51.054Z,976.00
2017-10-26T06:46:12.051Z,1032.00
2017-10-26T06:46:51.041Z,1088.00
2017-10-26T06:47:51.037Z,1160.00
2017-10-26T06:49:12.035Z,1248.00
2017-10-26T06:49:51.023Z,1336.00
2017-10-26T06:51:12.026Z,1400.00
2017-10-26T06:51:51.011Z,1480.00
2017-10-26T06:52:51.009Z,1552.00
2017-10-26T06:54:12.005Z,1608.00
2017-10-26T06:54:50.994Z,1628.00
2017-10-26T06:56:11.995Z,1656.00
2017-10-26T06:56:50.982Z,1696.00
2017-10-26T06:57:50.979Z,1724.00
2017-10-26T06:59:11.985Z,1736.00
2017-10-26T06:59:50.969Z,1720.00
2017-10-26T07:01:11.969Z,1684.00
2017-10-26T07:01:50.955Z,1684.00
2017-10-26T07:02:50.947Z,1708.00
2017-10-26T07:04:11.963Z,1744.00
2017-10-26T07:04:50.941Z,1788.00
2017-10-26T07:06:11.968Z,1816.00
2017-10-26T07:06:50.925Z,1824.00
2017-10-26T07:07:50.939Z,1820.00
2017-10-26T07:09:11.920Z,1808.00
2017-10-26T07:09:50.908Z,1764.00
2017-10-26T07:11:11.906Z,1720.00
2017-10-26T07:11:50.899Z,1700.00
2017-10-26T07:12:50.896Z,1712.00
2017-10-26T07:14:11.898Z,1704.00
2017-10-26T07:14:50.883Z,1668.00
2017-10-26T07:16:11.889Z,1628.00
2017-10-26T07:16:50.871Z,1576.00
2017-10-26T07:17:50.892Z,1548.00
2017-10-26T07:19:11.864Z,1528.00
2017-10-26T07:19:50.859Z,1520.00
2017-10-26T07:21:11.858Z,1528.00
2017-10-26T07:21:50.843Z,1532.00
2017-10-26T07:22:50.839Z,1552.00
2017-10-26T07:24:11.840Z,1588.00
2017-10-26T07:24:50.827Z,1628.00
2017-10-26T07:26:11.826Z,1644.00
2017-10-26T07:26:50.817Z,1652.00
2017-10-26T07:27:50.807Z,1692.00
2017-10-26T07:29:11.812Z,1752.00
2017-10-26T07:29:50.799Z,1736.00
2017-10-26T07:31:11.800Z,1724.00
2017-10-26T07:31:50.786Z,1692.00
2017-10-26T07:32:50.783Z,1680.00
2017-10-26T07:34:11.787Z,1704.00
2017-10-26T07:34:50.776Z,1740.00
2017-10-26T07:36:11.773Z,1788.00
2017-10-26T07:36:50.765Z,1868.00
2017-10-26T07:37:50.754Z,1952.00
2017-10-26T07:39:11.754Z,2032.00
2017-10-26T07:39:50.743Z,2124.00
2017-10-26T07:41:11.744Z,2260.00
2017-10-26T07:41:50.729Z,2428.00
2017-10-26T07:42:50.725Z,2612.00
2017-10-26T07:44:11.728Z,2720.00
2017-10-26T07:44:50.713Z,2904.00
2017-10-26T07:46:11.714Z,3156.00
2017-10-26T07:46:50.709Z,3292.00
2017-10-26T07:47:50.700Z,3424.00
2017-10-26T07:49:11.698Z,3544.00
2017-10-26T07:49:50.692Z,3552.00
2017-10-26T07:51:11.689Z,3516.00
2017-10-26T07:51:50.678Z,3436.00
2017-10-26T07:52:50.674Z,3288.00
2017-10-26T07:54:11.680Z,3132.00
2017-10-26T07:54:50.661Z,3008.00
2017-10-26T07:56:11.665Z,2992.00
2017-10-26T07:56:50.651Z,2936.00
2017-10-26T07:57:50.648Z,2704.00
2017-10-26T07:59:11.645Z,2628.00
2017-10-26T07:59:50.634Z,2592.00
2017-10-26T08:01:11.635Z,2420.00
2017-10-26T08:01:50.624Z,2260.00
2017-10-26T08:02:50.620Z,2360.00
2017-10-26T08:04:11.621Z,2356.00
2017-10-26T08:04:50.607Z,2388.00
2017-10-26T08:06:11.608Z,2408.00
2017-10-26T08:06:50.600Z,2408.00
2017-10-26T08:07:50.599Z,2400.00
2017-10-26T08:09:11.598Z,2400.00
2017-10-26T08:09:50.583Z,2460.00
2017-10-26T08:11:11.585Z,2428.00
2017-10-26T08:11:50.572Z,2376.00
2017-10-26T08:12:50.567Z,2404.00
2017-10-26T08:14:11.576Z,2452.00
2017-10-26T08:14:50.557Z,2448.00
2017-10-26T08:16:11.574Z,2516.00
2017-10-26T08:16:50.549Z,2576.00
2017-10-26T08:17:50.544Z,2580.00
2017-10-26T08:19:11.547Z,2684.00
2017-10-26T08:19:50.534Z,2732.00
2017-10-26T08:21:11.533Z,2740.00
2017-10-26T08:21:50.520Z,2800.00
2017-10-26T08:22:50.520Z,2800.00
2017-10-26T08:24:11.520Z,2876.00
2017-10-26T08:24:50.507Z,3092.00
2017-10-26T08:26:11.510Z,3232.00
2017-10-26T08:26:50.497Z,3268.00
2017-10-26T08:27:50.493Z,3312.00
2017-10-26T08:29:11.491Z,3484.00
2017-10-26T08:29:50.478Z,3372.00
2017-10-26T08:31:11.485Z,3332.00
2017-10-26T08:31:50.469Z,3360.00
2017-10-26T08:32:50.466Z,3252.00
2017-10-26T08:34:11.466Z,3232.00
2017-10-26T08:34:50.473Z,3228.00
2017-10-26T08:36:11.465Z,3140.00
2017-10-26T08:36:50.477Z,3024.00
2017-10-26T08:37:50.444Z,2964.00
2017-10-26T08:39:11.441Z,2948.00
2017-10-26T08:39:50.435Z,2920.00
2017-10-26T08:41:11.450Z,3120.00
2017-10-26T08:41:50.422Z,3024.00
2017-10-26T08:42:50.417Z,3032.00
2017-10-26T08:44:11.427Z,3136.00
2017-10-26T08:44:50.408Z,3248.00
2017-10-26T08:46:11.411Z,3348.00
2017-10-26T08:46:50.400Z,3432.00
2017-10-26T08:47:50.430Z,3528.00
2017-10-26T08:49:11.398Z,3592.00
2017-10-26T08:49:50.382Z,3512.00
2017-10-26T08:51:11.385Z,3464.00
2017-10-26T08:51:50.376Z,3228.00
2017-10-26T08:52:50.367Z,3004.00
2017-10-26T08:54:11.394Z,3144.00
2017-10-26T08:54:50.359Z,3192.00
2017-10-26T08:56:11.363Z,3276.00
2017-10-26T08:56:50.352Z,3380.00
2017-10-26T08:57:50.372Z,3460.00
2017-10-26T08:59:11.349Z,3544.00
2017-10-26T08:59:50.336Z,3604.00
2017-10-26T09:01:11.339Z,3620.00
2017-10-26T09:01:50.324Z,3700.00
2017-10-26T09:02:50.321Z,3756.00
2017-10-26T09:04:11.326Z,3776.00
2017-10-26T09:04:50.313Z,3728.00
2017-10-26T09:06:11.316Z,3712.00
2017-10-26T09:06:50.308Z,3824.00
2017-10-26T09:07:50.301Z,3836.00
2017-10-26T09:09:11.303Z,3848.00
2017-10-26T09:09:50.289Z,3796.00
2017-10-26T09:11:11.290Z,3796.00
2017-10-26T09:11:50.282Z,3596.00
2017-10-26T09:12:50.290Z,3588.00
2017-10-26T09:14:11.274Z,3760.00
2017-10-26T09:14:50.262Z,3812.00
2017-10-26T09:16:11.270Z,3760.00
2017-10-26T09:16:50.260Z,3708.00
2017-10-26T09:19:11.307Z,3484.00
2017-10-26T09:21:11.350Z,3176.00
2017-10-26T09:21:50.283Z,3296.00
2017-10-26T09:24:21.817Z,3064.00
2017-10-26T09:25:21.812Z,3244.00
2017-10-26T09:27:14.678Z,3448.00
2017-10-26T09:28:14.671Z,3512.00
2017-10-26T09:30:07.552Z,3484.00
2017-10-26T09:31:07.542Z,3248.00
2017-10-26T09:33:00.416Z,3384.00
2017-10-26T09:34:00.412Z,3508.00
2017-10-26T09:35:53.271Z,3564.00
2017-10-26T09:36:53.269Z,3476.00
2017-10-26T09:38:46.146Z,3556.00
2017-10-26T09:39:46.140Z,3536.00
2017-10-26T09:41:39.006Z,3460.00
2017-10-26T09:42:39.003Z,3476.00
2017-10-26T09:44:31.875Z,3692.00
2017-10-26T09:45:31.869Z,3576.00
2017-10-26T09:47:24.741Z,3792.00
2017-10-26T09:48:24.736Z,3804.00
2017-10-26T09:50:17.609Z,3800.00
2017-10-26T09:51:17.602Z,3768.00
2017-10-26T09:53:10.492Z,3596.00
2017-10-26T09:54:10.466Z,3444.00
2017-10-26T09:56:03.352Z,3484.00
2017-10-26T09:57:03.343Z,3380.00
2017-10-26T09:58:56.235Z,3372.00
2017-10-26T09:59:56.201Z,3484.00
2017-10-26T10:01:49.075Z,3680.00
2017-10-26T10:02:49.068Z,3668.00
2017-10-26T10:04:41.966Z,3936.00
2017-10-26T10:05:41.959Z,4112.00
2017-10-26T10:07:34.841Z,4304.00
2017-10-26T10:08:34.829Z,4324.00
2017-10-26T10:10:27.702Z,4372.00
2017-10-26T10:11:27.696Z,4396.00
2017-10-26T10:12:27.699Z,4068.00
2017-10-26T10:13:27.689Z,4464.00
2017-10-26T10:14:27.687Z,4464.00
2017-10-26T10:15:27.685Z,4504.00
2017-10-26T10:16:27.677Z,4456.00
2017-10-26T10:17:27.678Z,4612.00
2017-10-26T10:18:27.670Z,4664.00
2017-10-26T10:19:27.665Z,4668.00
2017-10-26T10:20:27.663Z,4668.00
2017-10-26T10:21:27.659Z,4736.00
2017-10-26T10:22:27.656Z,4804.00
2017-10-26T10:23:27.654Z,4832.00
2017-10-26T10:24:27.651Z,4840.00
2017-10-26T10:25:27.647Z,5080.00
2017-10-26T10:26:27.641Z,5196.00
2017-10-26T10:27:27.640Z,5500.00
2017-10-26T10:28:27.636Z,5708.00
2017-10-26T10:29:27.631Z,5764.00
2017-10-26T10:30:27.629Z,5700.00
2017-10-26T10:31:27.622Z,5820.00
2017-10-26T10:32:27.621Z,5616.00
2017-10-26T10:33:27.619Z,5620.00
2017-10-26T10:34:27.607Z,5508.00
2017-10-26T10:35:27.611Z,5388.00
2017-10-26T10:36:27.614Z,5208.00
2017-10-26T10:37:27.605Z,4820.00
2017-10-26T10:38:27.603Z,4856.00
2017-10-26T10:39:27.598Z,4816.00
2017-10-26T10:40:27.596Z,4800.00
2017-10-26T10:41:27.594Z,4604.00
2017-10-26T10:42:27.589Z,4456.00
2017-10-26T10:43:27.585Z,4444.00
2017-10-26T10:44:27.585Z,4428.00
2017-10-26T10:45:27.582Z,4664.00
2017-10-26T10:46:27.575Z,4980.00
2017-10-26T10:47:27.572Z,5128.00
2017-10-26T10:48:27.571Z,5428.00
2017-10-26T10:49:27.570Z,5716.00
2017-10-26T10:50:27.564Z,5832.00
2017-10-26T10:51:27.564Z,5900.00
2017-10-26T10:52:27.558Z,6096.00
2017-10-26T10:53:27.554Z,6180.00
2017-10-26T10:54:27.553Z,6772.00
2017-10-26T10:55:27.548Z,6592.00
2017-10-26T10:56:27.547Z,6592.00
2017-10-26T10:57:27.541Z,6516.00
2017-10-26T10:58:27.543Z,6640.00
2017-10-26T10:59:27.536Z,7052.00
2017-10-26T11:00:27.537Z,7684.00
2017-10-26T11:01:27.530Z,8400.00
2017-10-26T11:02:27.528Z,8120.00
2017-10-26T11:03:27.527Z,8040.00
2017-10-26T11:04:27.521Z,8364.00
2017-10-26T11:05:27.520Z,8136.00
2017-10-26T11:06:27.515Z,8664.00
2017-10-26T11:07:27.513Z,8660.00
2017-10-26T11:08:27.511Z,6740.00
2017-10-26T11:09:27.511Z,9840.00
2017-10-26T11:10:27.505Z,10944.00
2017-10-26T11:11:27.503Z,8120.00
2017-10-26T11:12:27.502Z,9476.00
2017-10-26T11:13:27.499Z,8784.00
2017-10-26T11:14:27.494Z,12124.00
2017-10-26T11:15:27.492Z,12160.00
2017-10-26T11:16:27.491Z,12240.00
2017-10-26T11:17:27.486Z,11940.00
2017-10-26T11:18:27.485Z,12312.00
2017-10-26T11:19:27.483Z,13188.00
2017-10-26T11:20:27.484Z,12200.00
2017-10-26T11:21:27.473Z,13312.00
2017-10-26T11:22:27.476Z,13552.00
2017-10-26T11:23:27.476Z,13256.00
2017-10-26T11:24:27.472Z,13344.00
2017-10-26T11:25:27.471Z,13228.00
2017-10-26T11:26:27.469Z,13408.00
2017-10-26T11:27:27.468Z,13132.00
2017-10-26T11:28:27.466Z,13216.00
2017-10-26T11:29:27.453Z,13220.00
2017-10-26T11:30:27.461Z,13288.00
2017-10-26T11:31:27.463Z,13284.00
2017-10-26T11:32:27.461Z,13132.00
2017-10-26T11:33:27.452Z,13100.00
2017-10-26T11:34:27.456Z,12880.00
2017-10-26T11:35:27.460Z,12684.00
2017-10-26T11:36:27.454Z,12772.00
2017-10-26T11:37:27.450Z,13296.00
2017-10-26T11:38:27.451Z,13188.00
2017-10-26T11:39:27.458Z,12956.00
2017-10-26T11:40:27.448Z,12340.00
2017-10-26T11:41:27.446Z,11856.00
2017-10-26T11:42:27.442Z,11468.00
2017-10-26T11:43:27.443Z,9348.00
2017-10-26T11:44:27.444Z,7724.00
2017-10-26T11:45:27.433Z,9400.00
2017-10-26T11:46:27.442Z,10144.00
2017-10-26T11:47:27.442Z,11016.00
2017-10-26T11:48:27.437Z,10864.00
2017-10-26T11:49:27.436Z,9516.00
2017-10-26T11:50:27.448Z,7532.00
2017-10-26T11:51:27.433Z,8196.00
2017-10-26T11:52:27.435Z,8284.00
2017-10-26T11:53:27.430Z,7892.00
2017-10-26T11:54:27.432Z,6664.00
2017-10-26T11:55:27.428Z,6304.00
2017-10-26T11:56:27.424Z,7528.00
2017-10-26T11:57:27.425Z,8896.00
2017-10-26T11:58:27.424Z,8876.00
2017-10-26T11:59:27.423Z,9268.00
2017-10-26T12:00:27.422Z,9388.00
2017-10-26T12:01:27.417Z,9612.00
2017-10-26T12:02:27.483Z,9384.00
2017-10-26T12:03:27.419Z,9164.00
2017-10-26T12:04:27.425Z,8928.00
2017-10-26T12:05:27.412Z,8160.00
2017-10-26T12:06:27.415Z,7940.00
2017-10-26T12:07:27.416Z,9060.00
2017-10-26T12:08:27.415Z,8692.00
2017-10-26T12:09:27.406Z,8488.00
2017-10-26T12:10:27.406Z,7104.00
2017-10-26T12:11:27.408Z,5684.00
2017-10-26T12:12:27.402Z,5364.00
2017-10-26T12:13:27.401Z,5704.00
2017-10-26T12:14:27.404Z,6060.00
2017-10-26T12:15:27.401Z,6772.00
2017-10-26T12:16:27.400Z,6716.00
2017-10-26T12:17:27.398Z,7268.00
2017-10-26T12:18:27.395Z,7544.00
2017-10-26T12:19:27.397Z,7720.00
2017-10-26T12:20:27.392Z,7844.00
2017-10-26T12:21:27.391Z,7716.00
2017-10-26T12:22:27.395Z,7988.00
2017-10-26T12:23:27.387Z,8100.00
2017-10-26T12:24:27.391Z,8184.00
2017-10-26T12:25:27.385Z,6948.00
2017-10-26T12:26:27.402Z,7232.00
2017-10-26T12:27:27.385Z,7248.00
2017-10-26T12:28:27.383Z,7780.00
2017-10-26T12:29:27.383Z,7032.00
2017-10-26T12:30:27.388Z,7916.00
2017-10-26T12:31:27.379Z,8112.00
2017-10-26T12:32:27.379Z,8384.00
2017-10-26T12:33:27.374Z,8592.00
2017-10-26T12:34:27.376Z,8980.00
2017-10-26T12:35:27.372Z,9176.00
2017-10-26T12:36:27.401Z,9400.00
2017-10-26T12:37:27.374Z,9244.00
2017-10-26T12:38:27.374Z,9080.00
2017-10-26T12:39:27.370Z,8240.00
2017-10-26T12:40:27.372Z,8332.00
2017-10-26T12:41:27.370Z,9068.00
2017-10-26T12:42:27.367Z,8724.00
2017-10-26T12:43:27.367Z,9164.00
2017-10-26T12:44:27.367Z,9340.00
2017-10-26T12:45:27.369Z,9084.00
2017-10-26T12:46:27.363Z,9100.00
2017-10-26T12:47:27.360Z,9308.00
2017-10-26T12:48:27.363Z,9308.00
2017-10-26T12:49:27.360Z,9424.00
2017-10-26T12:50:27.384Z,8996.00
2017-10-26T12:51:27.358Z,8104.00
2017-10-26T12:52:27.364Z,7944.00
2017-10-26T12:53:27.357Z,7724.00
2017-10-26T12:54:27.370Z,7432.00
2017-10-26T12:55:27.355Z,7160.00
2017-10-26T12:56:27.355Z,6960.00